Aviation Digital Data Service (ADDS)

Output produced by METARs form (0411 UTC 30 August 2014)
found at http://www.aviationweather.gov/adds/metars/
 
KJST 300354Z AUTO 14009KT 10SM CLR 17/12 A3021 RMK AO2 SLP220 T01670117
KJST 300254Z AUTO 15008KT 10SM CLR 17/11 A3021 RMK AO2 SLP222 T01670111 52010
KJST 300154Z AUTO 14008G15KT 10SM CLR 17/11 A3020 RMK AO2 SLP220 T01720111
KJST 300054Z AUTO 11005KT 10SM CLR 17/11 A3018 RMK AO2 SLP217 T01720111
KJST 292354Z AUTO 10005KT 10SM CLR 18/11 A3018 RMK AO2 SLP214 T01830111 10228 20183 51001
KJST 292254Z AUTO 14006KT 10SM CLR 21/10 A3017 RMK AO2 SLP214 T02110100
KJST 292154Z AUTO 15006KT 10SM CLR 22/11 A3018 RMK AO2 SLP214 T02220106
KJST 292054Z AUTO 16009KT 10SM CLR 23/11 A3017 RMK AO2 SLP210 T02280106 56009
KJST 291954Z AUTO 14008KT 10SM CLR 22/10 A3018 RMK AO2 SLP213 T02220100
KJST 291854Z AUTO 17007KT 10SM CLR 22/09 A3019 RMK AO2 SLP215 T02220094
KJST 291754Z AUTO 13005KT 10SM CLR 21/10 A3020 RMK AO2 SLP220 T02110100 10211 20111 58009
KJST 291654Z AUTO 20008KT 10SM CLR 20/09 A3021 RMK AO2 SLP224 T02000094
KJST 291554Z AUTO 13007KT 110V170 10SM CLR 18/10 A3022 RMK AO2 SLP228 T01830100
KJST 291454Z AUTO 16008KT 10SM CLR 17/09 A3023 RMK AO2 SLP230 T01720094 53003
KJST 291354Z AUTO 15008KT 10SM CLR 16/08 A3022 RMK AO2 SLP228 T01610083
KJST 291254Z AUTO 16004KT 10SM CLR 14/09 A3022 RMK AO2 SLP232 T01390089
KJST 291154Z AUTO 25003KT 10SM CLR 12/09 A3022 RMK AO2 SLP231 T01220089 10122 20089 53013
KJST 291054Z AUTO 00000KT 10SM CLR 10/07 A3020 RMK AO2 SLP224 T01000072
KJST 290954Z AUTO 21003KT 10SM CLR 09/08 A3019 RMK AO2 SLP221 T00940083
KJST 290854Z AUTO 00000KT 10SM CLR 11/09 A3018 RMK AO2 SLP215 T01060089 53002
KJST 290754Z AUTO 07004KT 10SM CLR 11/08 A3017 RMK AO2 SLP211 T01110078
KJST 290654Z AUTO 09004KT 10SM CLR 12/08 A3016 RMK AO2 SLP209 T01170083
KJST 290554Z AUTO 07004KT 10SM CLR 12/09 A3017 RMK AO2 SLP212 T01220089 10167 20122 50001
KJST 290454Z AUTO 07004KT 10SM CLR 13/09 A3019 RMK AO2 SLP217 T01330089 402060128
KJST 290354Z AUTO 02004KT 10SM CLR 14/09 A3019 RMK AO2 SLP216 T01390089
KJST 290254Z AUTO 33003KT 10SM CLR 16/09 A3017 RMK AO2 SLP209 T01560089 51016
KJST 290154Z AUTO 34005KT 10SM CLR 16/09 A3015 RMK AO2 SLP205 T01560089
KJST 290054Z AUTO 32004KT 10SM CLR 16/09 A3014 RMK AO2 SLP202 T01560089
KJST 282354Z AUTO 32004KT 10SM CLR 17/09 A3012 RMK AO2 SLP195 T01670089 10206 20167 53007
KJST 282254Z AUTO 33006KT 10SM CLR 19/09 A3010 RMK AO2 SLP186 T01890089
KJST 282154Z AUTO 32011KT 10SM CLR 19/08 A3010 RMK AO2 SLP184 T01940078
KJST 282054Z AUTO 30014G18KT 10SM CLR 20/09 A3010 RMK AO2 SLP184 T02000089 55002
KJST 281954Z AUTO 30011G16KT 10SM CLR 20/09 A3010 RMK AO2 SLP183 T02000089
KJST 281854Z AUTO 30010KT 10SM CLR 19/09 A3010 RMK AO2 SLP183 T01940089
KJST 281754Z AUTO 30011KT 10SM CLR 19/09 A3010 RMK AO2 SLP185 T01940094 10194 20144 57005
KJST 281654Z AUTO 31010G18KT 10SM FEW029 19/10 A3011 RMK AO2 SLP186 T01890100